createdAt,value
2022-08-12T00:00:47.446Z,57.08
2022-08-12T00:03:32.224Z,56.92
2022-08-12T00:06:17.815Z,56.94
2022-08-12T00:09:03.053Z,57.06
2022-08-12T00:11:47.943Z,57.08
2022-08-12T00:14:33.335Z,57.26
2022-08-12T00:17:18.559Z,57.32
2022-08-12T00:20:04.977Z,57.44
2022-08-12T00:22:58.730Z,57.45
2022-08-12T00:26:20.730Z,57.38
2022-08-12T00:29:04.183Z,57.85
2022-08-12T00:31:49.592Z,57.84
2022-08-12T00:34:35.406Z,57.97
2022-08-12T00:37:20.690Z,57.65
2022-08-12T00:40:11.759Z,57.96
2022-08-12T00:42:40.955Z,58.09
2022-08-12T00:45:10.062Z,58.44
2022-08-12T00:47:39.288Z,58.47
2022-08-12T00:50:07.782Z,58.62
2022-08-12T00:52:36.554Z,58.56
2022-08-12T00:55:06.086Z,58.79
2022-08-12T00:57:36.785Z,58.87
2022-08-12T01:00:12.593Z,58.99
2022-08-12T01:02:43.299Z,58.87
2022-08-12T01:05:31.611Z,59.01
2022-08-12T01:08:17.152Z,59.08
2022-08-12T01:11:04.511Z,59.27
2022-08-12T01:13:35.227Z,59.38
2022-08-12T01:16:06.174Z,59.54
2022-08-12T01:18:36.334Z,59.48
2022-08-12T01:21:22.267Z,59.79
2022-08-12T01:23:52.559Z,59.63
2022-08-12T01:26:24.284Z,59.72
2022-08-12T01:28:58.824Z,59.75
2022-08-12T01:31:29.397Z,59.91
2022-08-12T01:34:35.839Z,59.96
2022-08-12T01:37:02.139Z,60.00
2022-08-12T01:40:33.580Z,60.20
2022-08-12T01:42:45.953Z,60.38
2022-08-12T01:45:14.316Z,60.54
2022-08-12T01:48:05.536Z,60.43
2022-08-12T01:51:06.372Z,60.75
2022-08-12T01:54:01.303Z,61.00
2022-08-12T01:56:42.279Z,61.02
2022-08-12T01:59:32.108Z,61.12
2022-08-12T02:02:04.615Z,61.35
2022-08-12T02:05:16.239Z,61.30
2022-08-12T02:08:33.808Z,61.44
2022-08-12T02:11:24.454Z,61.69
2022-08-12T02:14:03.860Z,61.60
2022-08-12T02:16:37.922Z,61.76
2022-08-12T02:19:21.987Z,61.93
2022-08-12T02:22:12.026Z,61.97
2022-08-12T02:24:42.561Z,61.93
2022-08-12T02:27:13.443Z,62.01
2022-08-12T02:29:41.458Z,62.42
2022-08-12T02:32:09.852Z,62.12
2022-08-12T02:34:38.809Z,62.02
2022-08-12T02:37:09.037Z,62.26
2022-08-12T02:39:38.384Z,62.17
2022-08-12T02:42:09.247Z,62.12
2022-08-12T02:44:41.098Z,62.28
2022-08-12T02:47:58.093Z,62.57
2022-08-12T02:50:00.280Z,62.64
2022-08-12T02:52:29.302Z,62.63
2022-08-12T02:55:04.392Z,62.95
2022-08-12T02:57:32.939Z,63.21
2022-08-12T03:00:07.404Z,63.40
2022-08-12T03:02:39.425Z,63.38
2022-08-12T03:05:07.159Z,63.63
2022-08-12T03:07:59.071Z,63.53
2022-08-12T03:10:36.842Z,63.68
2022-08-12T03:13:07.087Z,63.94
2022-08-12T03:15:35.636Z,64.00
2022-08-12T03:18:25.413Z,64.37
2022-08-12T03:20:58.173Z,64.50
2022-08-12T03:23:30.143Z,64.64
2022-08-12T03:26:03.036Z,64.65
2022-08-12T03:28:54.238Z,65.06
2022-08-12T03:31:32.263Z,65.07
2022-08-12T03:34:08.812Z,65.48
2022-08-12T03:36:38.790Z,65.63
2022-08-12T03:39:36.599Z,65.76
2022-08-12T03:42:42.848Z,65.84
2022-08-12T03:45:51.608Z,66.03
2022-08-12T03:48:38.150Z,65.99
2022-08-12T03:51:23.422Z,66.24
2022-08-12T03:54:11.051Z,66.49
2022-08-12T03:56:57.067Z,66.77
2022-08-12T03:59:41.896Z,66.77
2022-08-12T04:02:15.247Z,66.89
2022-08-12T04:04:45.529Z,66.95
2022-08-12T04:07:16.151Z,68.12
2022-08-12T04:09:45.954Z,68.47
2022-08-12T04:12:40.185Z,68.64
2022-08-12T04:15:13.758Z,68.46
2022-08-12T04:18:07.439Z,68.87
2022-08-12T04:20:30.979Z,68.73
2022-08-12T04:22:59.357Z,68.36
2022-08-12T04:25:29.085Z,68.53
2022-08-12T04:27:56.853Z,68.62
2022-08-12T04:30:41.030Z,68.23
2022-08-12T04:33:10.473Z,67.79
2022-08-12T04:35:38.447Z,67.84
2022-08-12T04:38:06.215Z,67.99
2022-08-12T04:40:36.374Z,67.69
2022-08-12T04:43:04.428Z,67.78
2022-08-12T04:45:34.565Z,67.64
2022-08-12T04:48:03.024Z,67.55
2022-08-12T04:50:35.710Z,67.80
2022-08-12T04:53:06.471Z,67.56
2022-08-12T04:55:34.588Z,67.35
2022-08-12T04:58:02.192Z,67.59
2022-08-12T05:00:30.009Z,67.42
2022-08-12T05:02:57.595Z,67.26
2022-08-12T05:05:25.662Z,67.28
2022-08-12T05:07:55.296Z,67.32
2022-08-12T05:10:33.408Z,67.12
2022-08-12T05:13:06.066Z,66.81
2022-08-12T05:15:36.100Z,66.59
2022-08-12T05:18:19.136Z,66.51
2022-08-12T05:20:48.291Z,66.35
2022-08-12T05:23:21.383Z,66.18
2022-08-12T05:25:51.504Z,66.27
2022-08-12T05:28:19.229Z,66.18
2022-08-12T05:30:48.006Z,66.10
2022-08-12T05:33:15.862Z,65.65
2022-08-12T05:35:45.280Z,65.68
2022-08-12T05:38:33.509Z,65.46
2022-08-12T05:41:02.143Z,65.07
2022-08-12T05:43:29.921Z,65.34
2022-08-12T05:45:57.702Z,64.29
2022-08-12T05:48:25.466Z,64.12
2022-08-12T05:50:53.591Z,64.16
2022-08-12T05:53:21.104Z,63.46
2022-08-12T05:55:48.610Z,63.38
2022-08-12T05:58:16.160Z,63.19
2022-08-12T06:00:43.724Z,62.55
2022-08-12T06:03:12.011Z,62.54
2022-08-12T06:05:43.002Z,62.13
2022-08-12T06:08:23.539Z,61.40
2022-08-12T06:10:51.224Z,61.31
2022-08-12T06:13:28.339Z,61.17
2022-08-12T06:16:08.260Z,60.65
2022-08-12T06:18:40.002Z,60.15
2022-08-12T06:21:25.808Z,59.48
2022-08-12T06:23:54.434Z,59.41
2022-08-12T06:26:22.363Z,58.69
2022-08-12T06:28:51.392Z,59.24
2022-08-12T06:31:26.282Z,58.74
2022-08-12T06:34:57.960Z,57.33
2022-08-12T06:36:43.129Z,57.23
2022-08-12T06:39:14.335Z,57.26
2022-08-12T06:42:05.137Z,56.47
2022-08-12T06:44:50.442Z,56.52
2022-08-12T06:47:19.429Z,55.88
2022-08-12T06:49:48.623Z,55.43
2022-08-12T06:52:17.199Z,55.82
2022-08-12T06:54:45.750Z,54.72
2022-08-12T06:58:06.178Z,54.23
2022-08-12T07:00:00.840Z,53.37
2022-08-12T07:02:29.976Z,53.38
2022-08-12T07:05:00.100Z,53.29
2022-08-12T07:07:27.640Z,52.67
2022-08-12T07:10:05.425Z,52.65
2022-08-12T07:12:35.491Z,52.10
2022-08-12T07:15:03.143Z,51.59
2022-08-12T07:17:36.176Z,51.37
2022-08-12T07:20:35.962Z,50.67
2022-08-12T07:23:01.866Z,50.02
2022-08-12T07:25:38.516Z,49.36
2022-08-12T07:28:16.170Z,48.71
2022-08-12T07:30:45.306Z,47.29
2022-08-12T07:33:15.720Z,47.13
2022-08-12T07:35:45.395Z,46.98
2022-08-12T07:38:33.428Z,47.17
2022-08-12T07:41:14.478Z,47.73
2022-08-12T07:43:58.264Z,44.65
2022-08-12T07:46:36.628Z,43.16
2022-08-12T07:49:16.426Z,42.72
2022-08-12T07:51:45.370Z,42.38
2022-08-12T07:54:14.111Z,41.99
2022-08-12T07:56:43.471Z,41.77
2022-08-12T07:59:11.978Z,41.48
2022-08-12T08:01:39.865Z,40.18
2022-08-12T08:04:25.703Z,40.89
2022-08-12T08:06:54.059Z,40.44
2022-08-12T08:09:24.309Z,40.27
2022-08-12T08:12:19.013Z,39.64
2022-08-12T08:14:49.950Z,40.00
2022-08-12T08:17:18.172Z,39.94
2022-08-12T08:20:02.594Z,39.34
2022-08-12T08:22:50.308Z,39.01
2022-08-12T08:25:35.272Z,38.58
2022-08-12T08:28:08.958Z,34.88
2022-08-12T08:30:39.342Z,35.71
2022-08-12T08:33:24.504Z,34.72
2022-08-12T08:35:58.395Z,36.18
2022-08-12T08:38:32.666Z,33.81
2022-08-12T08:42:18.915Z,33.39
2022-08-12T08:44:12.025Z,33.13
2022-08-12T08:46:43.693Z,33.58
2022-08-12T08:49:12.655Z,32.19
2022-08-12T08:51:40.789Z,32.27
2022-08-12T08:54:11.535Z,31.57
2022-08-12T08:56:43.967Z,32.39
2022-08-12T08:59:13.562Z,29.69
2022-08-12T09:01:44.382Z,29.94
2022-08-12T09:05:07.721Z,28.37
2022-08-12T09:07:00.693Z,27.96
2022-08-12T09:15:39.154Z,27.03
2022-08-12T09:18:11.119Z,26.41
2022-08-12T09:20:42.527Z,25.44
2022-08-12T09:23:59.575Z,26.04
2022-08-12T09:26:03.773Z,24.94
2022-08-12T09:28:32.869Z,26.21
2022-08-12T09:31:01.154Z,27.15
2022-08-12T09:34:29.084Z,25.55
2022-08-12T09:36:30.747Z,25.73
2022-08-12T09:39:02.481Z,25.67
2022-08-12T09:42:38.983Z,23.57
2022-08-12T09:45:19.225Z,24.21
2022-08-12T09:47:59.842Z,23.66
2022-08-12T09:50:28.667Z,23.10
2022-08-12T09:53:15.406Z,23.90
2022-08-12T09:56:05.840Z,22.75
2022-08-12T09:58:58.468Z,22.25
2022-08-12T10:01:25.294Z,21.43
2022-08-12T10:04:05.739Z,21.33
2022-08-12T10:06:36.770Z,20.63
2022-08-12T10:09:20.946Z,20.09
2022-08-12T10:12:12.111Z,19.95
2022-08-12T10:14:49.954Z,20.83
2022-08-12T10:17:23.444Z,20.45
2022-08-12T10:19:53.077Z,20.35
2022-08-12T10:22:36.810Z,21.67
2022-08-12T10:25:24.637Z,20.92
2022-08-12T10:28:29.491Z,20.23
2022-08-12T10:30:58.324Z,20.07
2022-08-12T10:33:30.850Z,20.13
2022-08-12T10:35:59.997Z,19.28
2022-08-12T10:38:33.853Z,19.31
2022-08-12T10:41:21.601Z,19.96
2022-08-12T10:43:56.450Z,18.92
2022-08-12T10:46:31.202Z,18.71
2022-08-12T10:49:06.263Z,19.47
2022-08-12T10:52:33.209Z,19.67
2022-08-12T10:54:39.714Z,19.07
2022-08-12T10:57:09.161Z,18.05
2022-08-12T11:00:32.820Z,18.77
2022-08-12T11:04:24.694Z,18.64
2022-08-12T11:07:07.467Z,18.92
2022-08-12T11:08:36.957Z,18.88
2022-08-12T11:10:58.976Z,19.76
2022-08-12T11:13:46.130Z,19.46
2022-08-12T11:16:22.492Z,19.15
2022-08-12T11:18:55.135Z,18.69
2022-08-12T11:21:56.688Z,19.06
2022-08-12T11:24:30.886Z,18.33
2022-08-12T11:27:00.002Z,19.30
2022-08-12T11:30:02.032Z,18.63
2022-08-12T11:32:17.416Z,18.94
2022-08-12T11:34:53.059Z,19.28
2022-08-12T11:37:25.683Z,19.86
2022-08-12T11:42:39.858Z,19.25
2022-08-12T11:45:16.287Z,19.07
2022-08-12T11:47:44.863Z,18.35
2022-08-12T11:50:19.041Z,17.79
2022-08-12T11:52:56.799Z,17.56
2022-08-12T11:55:27.509Z,16.98
2022-08-12T11:58:40.658Z,16.93
2022-08-12T12:03:43.876Z,19.41
2022-08-12T12:06:17.129Z,18.98
2022-08-12T12:08:50.940Z,18.63
2022-08-12T12:11:20.873Z,17.38
2022-08-12T12:14:10.936Z,17.25
2022-08-12T12:16:39.838Z,18.54
2022-08-12T12:19:10.402Z,18.53
2022-08-12T12:21:46.973Z,18.45
2022-08-12T12:24:20.898Z,18.33
2022-08-12T12:26:48.490Z,17.76
2022-08-12T12:30:14.096Z,17.53
2022-08-12T12:32:16.783Z,16.53
2022-08-12T12:35:14.554Z,15.96
2022-08-12T12:38:03.985Z,16.34
2022-08-12T12:40:22.090Z,15.85
2022-08-12T12:43:01.680Z,15.04
2022-08-12T12:45:33.648Z,15.74
2022-08-12T12:48:08.288Z,15.95
2022-08-12T12:50:45.651Z,16.45
2022-08-12T12:54:05.294Z,15.72
2022-08-12T12:56:21.023Z,15.22
2022-08-12T12:59:03.525Z,15.11
2022-08-12T13:01:38.399Z,15.71
2022-08-12T13:04:13.702Z,15.82
2022-08-12T13:06:42.173Z,16.62
2022-08-12T13:09:13.240Z,15.66
2022-08-12T13:11:42.129Z,15.09
2022-08-12T13:14:29.483Z,16.56
2022-08-12T13:17:02.694Z,15.87
2022-08-12T13:19:44.525Z,16.23
2022-08-12T13:22:20.420Z,16.56
2022-08-12T13:24:55.995Z,16.74
2022-08-12T13:27:48.442Z,16.40
2022-08-12T13:30:18.857Z,16.22
2022-08-12T13:32:56.851Z,15.85
2022-08-12T13:36:02.766Z,15.10
2022-08-12T13:38:26.863Z,15.01
2022-08-12T13:41:02.654Z,14.86
2022-08-12T13:43:41.054Z,15.54
2022-08-12T13:46:12.469Z,16.06
2022-08-12T13:48:45.368Z,16.45
2022-08-12T13:51:14.325Z,16.37
2022-08-12T13:53:59.317Z,16.86
2022-08-12T13:56:34.750Z,17.38
2022-08-12T13:59:07.970Z,17.28
2022-08-12T14:01:40.373Z,16.50
2022-08-12T14:04:11.502Z,16.39
2022-08-12T14:06:40.765Z,17.37
2022-08-12T14:09:15.415Z,17.33
2022-08-12T14:11:51.320Z,16.88
2022-08-12T14:14:27.003Z,17.78
2022-08-12T14:16:55.168Z,17.65
2022-08-12T14:19:27.123Z,17.55
2022-08-12T14:22:05.483Z,17.89
2022-08-12T14:24:40.032Z,18.08
2022-08-12T14:27:10.720Z,18.14
2022-08-12T14:30:05.391Z,19.66
2022-08-12T14:32:39.980Z,19.39
2022-08-12T14:35:09.161Z,19.72
2022-08-12T14:37:56.010Z,19.96
2022-08-12T14:40:28.308Z,19.86
2022-08-12T14:42:57.432Z,19.97
2022-08-12T14:45:44.506Z,20.85
2022-08-12T14:48:14.856Z,19.89
2022-08-12T14:51:09.797Z,19.59
2022-08-12T14:59:27.327Z,20.22
2022-08-12T15:02:19.596Z,19.62
2022-08-12T15:04:59.339Z,19.42
2022-08-12T15:07:34.307Z,20.61
2022-08-12T15:10:31.620Z,20.68
2022-08-12T15:12:59.600Z,20.51
2022-08-12T15:15:28.267Z,20.69
2022-08-12T15:18:05.048Z,20.98
2022-08-12T15:20:37.430Z,20.72
2022-08-12T15:23:17.433Z,20.85
2022-08-12T15:25:47.758Z,21.01
2022-08-12T15:28:22.269Z,21.28
2022-08-12T15:30:53.115Z,21.37
2022-08-12T15:33:24.308Z,21.35
2022-08-12T15:35:53.825Z,20.96
2022-08-12T15:38:25.253Z,21.42
2022-08-12T15:40:54.208Z,21.28
2022-08-12T15:43:52.105Z,21.68
2022-08-12T15:46:15.750Z,22.26
2022-08-12T15:48:46.747Z,22.41
2022-08-12T15:51:59.946Z,21.72
2022-08-12T15:54:33.723Z,22.33
2022-08-12T15:57:16.834Z,22.43
2022-08-12T16:00:03.911Z,22.26
2022-08-12T16:02:50.139Z,22.58
2022-08-12T16:06:12.339Z,22.53
2022-08-12T16:08:18.382Z,22.33
2022-08-12T16:10:48.187Z,22.13
2022-08-12T16:13:32.358Z,21.92
2022-08-12T16:16:03.274Z,22.19
2022-08-12T16:18:35.584Z,22.72
2022-08-12T16:21:07.310Z,22.62
2022-08-12T16:23:51.872Z,22.96
2022-08-12T16:26:32.309Z,22.15
2022-08-12T16:29:14.511Z,22.70
2022-08-12T16:31:43.385Z,22.03
2022-08-12T16:34:25.771Z,22.37
2022-08-12T16:37:03.183Z,22.76
2022-08-12T16:39:54.282Z,22.40
2022-08-12T16:42:22.625Z,23.26
2022-08-12T16:44:56.579Z,23.14
2022-08-12T16:47:27.250Z,23.01
2022-08-12T16:49:57.721Z,22.97
2022-08-12T16:52:26.294Z,22.62
2022-08-12T16:54:54.621Z,22.94
2022-08-12T16:57:32.434Z,22.63
2022-08-12T17:00:04.158Z,23.42
2022-08-12T17:02:35.324Z,22.87
2022-08-12T17:05:05.521Z,23.40
2022-08-12T17:07:37.902Z,23.16
2022-08-12T17:10:07.942Z,23.04
2022-08-12T17:12:37.591Z,23.03
2022-08-12T17:15:25.712Z,23.63
2022-08-12T17:18:39.423Z,23.31
2022-08-12T17:20:47.711Z,23.35
2022-08-12T17:23:17.722Z,23.48
2022-08-12T17:25:52.964Z,23.48
2022-08-12T17:28:22.703Z,23.43
2022-08-12T17:30:59.511Z,23.84
2022-08-12T17:33:33.515Z,23.88
2022-08-12T17:36:05.610Z,24.22
2022-08-12T17:38:34.643Z,24.03
2022-08-12T17:41:22.638Z,24.23
2022-08-12T17:43:56.816Z,24.38
2022-08-12T17:46:33.646Z,24.19
2022-08-12T17:49:06.587Z,24.96
2022-08-12T17:51:50.432Z,25.51
2022-08-12T17:54:18.764Z,24.41
2022-08-12T17:56:47.346Z,24.50
2022-08-12T17:59:48.317Z,25.24
2022-08-12T18:02:13.620Z,24.73
2022-08-12T18:05:04.601Z,24.17
2022-08-12T18:07:35.656Z,25.77
2022-08-12T18:10:04.819Z,25.80
2022-08-12T18:12:40.100Z,24.97
2022-08-12T18:15:26.194Z,24.90
2022-08-12T18:17:59.193Z,24.95
2022-08-12T18:20:28.876Z,25.04
2022-08-12T18:22:59.382Z,24.98
2022-08-12T18:26:15.237Z,24.70
2022-08-12T18:28:40.419Z,25.33
2022-08-12T18:31:08.428Z,25.47
2022-08-12T18:33:44.055Z,25.86
2022-08-12T18:36:14.502Z,27.04
2022-08-12T18:38:51.136Z,27.68
2022-08-12T18:41:34.185Z,27.60
2022-08-12T18:44:10.084Z,28.25
2022-08-12T18:46:55.612Z,28.50
2022-08-12T18:49:34.940Z,28.48
2022-08-12T18:52:08.109Z,28.73
2022-08-12T18:54:49.263Z,29.28
2022-08-12T18:58:06.151Z,30.42
2022-08-12T19:00:21.010Z,30.68
2022-08-12T19:02:51.940Z,31.21
2022-08-12T19:05:21.083Z,32.06
2022-08-12T19:08:00.986Z,33.17
2022-08-12T19:10:32.348Z,32.66
2022-08-12T19:13:23.143Z,33.68
2022-08-12T19:15:54.405Z,34.05
2022-08-12T19:18:24.452Z,33.73
2022-08-12T19:20:58.283Z,34.86
2022-08-12T19:23:33.782Z,34.65
2022-08-12T19:26:03.450Z,34.07
2022-08-12T19:28:34.932Z,35.14
2022-08-12T19:31:56.328Z,34.90
2022-08-12T19:35:06.658Z,35.26
2022-08-12T19:38:04.464Z,36.10
2022-08-12T19:40:32.877Z,36.47
2022-08-12T19:43:20.008Z,37.57
2022-08-12T19:45:54.446Z,37.33
2022-08-12T19:48:30.682Z,37.52
2022-08-12T19:51:08.671Z,37.97
2022-08-12T19:53:40.357Z,38.29
2022-08-12T19:56:25.494Z,39.05
2022-08-12T19:58:53.838Z,38.70
2022-08-12T20:01:23.934Z,39.74
2022-08-12T20:03:57.667Z,39.03
2022-08-12T20:06:33.892Z,39.95
2022-08-12T20:09:04.126Z,39.41
2022-08-12T20:12:11.962Z,39.65
2022-08-12T20:14:21.160Z,40.02
2022-08-12T20:16:52.902Z,40.26
2022-08-12T20:20:04.090Z,40.24
2022-08-12T20:22:24.551Z,40.32
2022-08-12T20:25:01.597Z,40.67
2022-08-12T20:28:04.660Z,41.54
2022-08-12T20:30:20.541Z,41.76
2022-08-12T20:33:05.587Z,41.46
2022-08-12T20:36:06.741Z,42.17
2022-08-12T20:38:26.868Z,43.10
2022-08-12T20:40:55.583Z,42.95
2022-08-12T20:43:24.094Z,43.67
2022-08-12T20:45:58.013Z,43.86
2022-08-12T20:48:29.729Z,43.26
2022-08-12T20:51:04.454Z,44.04
2022-08-12T20:53:53.967Z,44.30
2022-08-12T20:56:30.668Z,44.29
2022-08-12T20:59:01.074Z,45.01
2022-08-12T21:01:46.557Z,44.13
2022-08-12T21:04:34.868Z,44.79
2022-08-12T21:07:08.947Z,43.92
2022-08-12T21:09:44.282Z,44.86
2022-08-12T21:12:28.285Z,44.32
2022-08-12T21:15:23.634Z,43.66
2022-08-12T21:18:11.252Z,42.86
2022-08-12T21:20:54.751Z,43.16
2022-08-12T21:23:25.439Z,43.73
2022-08-12T21:25:56.641Z,44.37
2022-08-12T21:28:31.303Z,45.52
2022-08-12T21:32:35.095Z,46.06
2022-08-12T21:34:08.193Z,45.37
2022-08-12T21:36:43.401Z,45.10
2022-08-12T21:39:27.815Z,44.89
2022-08-12T21:42:06.824Z,45.25
2022-08-12T21:45:47.443Z,45.60
2022-08-12T21:47:28.851Z,45.78
2022-08-12T21:50:06.480Z,45.63
2022-08-12T21:52:40.888Z,45.86
2022-08-12T21:55:18.196Z,46.29
2022-08-12T21:57:50.918Z,46.56
2022-08-12T22:00:24.001Z,46.11
2022-08-12T22:03:55.029Z,45.08
2022-08-12T22:06:26.317Z,46.04
2022-08-12T22:09:09.043Z,45.33
2022-08-12T22:11:49.121Z,45.12
2022-08-12T22:14:24.555Z,44.51
2022-08-12T22:16:54.803Z,45.71
2022-08-12T22:19:23.540Z,45.71
2022-08-12T22:21:55.551Z,46.72
2022-08-12T22:24:30.024Z,45.89
2022-08-12T22:27:18.179Z,45.03
2022-08-12T22:30:07.278Z,44.61
2022-08-12T22:32:36.515Z,43.26
2022-08-12T22:35:23.202Z,42.95
2022-08-12T22:37:53.565Z,42.27
2022-08-12T22:40:23.891Z,40.92
2022-08-12T22:43:15.784Z,42.36
2022-08-12T22:45:59.063Z,40.33
2022-08-12T22:48:27.001Z,39.61
2022-08-12T22:50:59.051Z,40.63
2022-08-12T22:53:36.231Z,39.38
2022-08-12T22:56:07.189Z,38.28
2022-08-12T22:58:41.383Z,38.98
2022-08-12T23:01:10.690Z,39.78
2022-08-12T23:03:49.086Z,38.87
2022-08-12T23:06:20.233Z,39.68
2022-08-12T23:08:48.401Z,38.42
2022-08-12T23:11:17.180Z,37.13
2022-08-12T23:13:54.959Z,37.85
2022-08-12T23:16:31.202Z,37.05
2022-08-12T23:19:10.602Z,36.99
2022-08-12T23:22:05.065Z,39.16
2022-08-12T23:24:54.103Z,37.92
2022-08-12T23:27:51.191Z,37.61
2022-08-12T23:30:32.049Z,38.08
2022-08-12T23:33:20.377Z,39.27
2022-08-12T23:36:02.362Z,37.60
2022-08-12T23:38:32.307Z,37.54
2022-08-12T23:41:05.975Z,37.49
2022-08-12T23:43:39.678Z,38.33
2022-08-12T23:46:10.002Z,38.50
2022-08-12T23:48:38.723Z,38.68
2022-08-12T23:51:22.055Z,38.14
2022-08-12T23:54:03.019Z,37.85
2022-08-12T23:56:33.631Z,39.16
2022-08-12T23:59:03.354Z,39.47
